sensor_id;sensor_type;location;lat;lon;timestamp;temperature;humidity
57564;DHT22;43400;45.926;6.724;2022-12-31T00:02:23;8.90;99.90
57564;DHT22;43400;45.926;6.724;2022-12-31T00:04:55;8.90;99.90
57564;DHT22;43400;45.926;6.724;2022-12-31T00:07:27;8.90;99.90
57564;DHT22;43400;45.926;6.724;2022-12-31T00:09:59;8.90;99.90
57564;DHT22;43400;45.926;6.724;2022-12-31T00:12:31;8.90;99.90
57564;DHT22;43400;45.926;6.724;2022-12-31T00:15:03;9.00;99.90
57564;DHT22;43400;45.926;6.724;2022-12-31T00:17:35;9.00;99.90
57564;DHT22;43400;45.926;6.724;2022-12-31T00:20:07;9.00;99.90
57564;DHT22;43400;45.926;6.724;2022-12-31T00:22:39;8.90;99.90
57564;DHT22;43400;45.926;6.724;2022-12-31T00:25:11;8.90;99.90
57564;DHT22;43400;45.926;6.724;2022-12-31T00:27:43;8.90;99.90
57564;DHT22;43400;45.926;6.724;2022-12-31T00:30:15;9.00;99.90
57564;DHT22;43400;45.926;6.724;2022-12-31T00:32:47;9.00;99.90
57564;DHT22;43400;45.926;6.724;2022-12-31T00:35:19;9.00;99.90
57564;DHT22;43400;45.926;6.724;2022-12-31T00:37:51;9.10;99.90
57564;DHT22;43400;45.926;6.724;2022-12-31T00:40:25;9.10;99.90
57564;DHT22;43400;45.926;6.724;2022-12-31T00:42:56;9.20;99.90
57564;DHT22;43400;45.926;6.724;2022-12-31T00:45:28;9.20;99.90
57564;DHT22;43400;45.926;6.724;2022-12-31T00:48:01;9.20;99.90
57564;DHT22;43400;45.926;6.724;2022-12-31T00:50:33;9.20;99.90
57564;DHT22;43400;45.926;6.724;2022-12-31T00:53:05;9.20;99.90
57564;DHT22;43400;45.926;6.724;2022-12-31T00:55:39;9.20;99.90
57564;DHT22;43400;45.926;6.724;2022-12-31T00:58:10;9.10;99.90
57564;DHT22;43400;45.926;6.724;2022-12-31T01:00:42;9.10;99.90
57564;DHT22;43400;45.926;6.724;2022-12-31T01:03:15;9.00;99.90
57564;DHT22;43400;45.926;6.724;2022-12-31T01:05:46;9.10;99.90
57564;DHT22;43400;45.926;6.724;2022-12-31T01:08:18;9.10;99.90
57564;DHT22;43400;45.926;6.724;2022-12-31T01:10:50;9.10;99.90
57564;DHT22;43400;45.926;6.724;2022-12-31T01:13:22;9.00;99.90
57564;DHT22;43400;45.926;6.724;2022-12-31T01:15:54;9.10;99.90
57564;DHT22;43400;45.926;6.724;2022-12-31T01:18:26;9.10;99.90
57564;DHT22;43400;45.926;6.724;2022-12-31T01:21:04;9.20;99.90
57564;DHT22;43400;45.926;6.724;2022-12-31T01:23:36;9.20;99.90
57564;DHT22;43400;45.926;6.724;2022-12-31T01:26:11;9.20;99.90
57564;DHT22;43400;45.926;6.724;2022-12-31T01:28:45;9.20;99.90
57564;DHT22;43400;45.926;6.724;2022-12-31T01:31:19;9.30;99.90
57564;DHT22;43400;45.926;6.724;2022-12-31T01:33:51;9.20;99.90
57564;DHT22;43400;45.926;6.724;2022-12-31T01:36:26;9.20;99.90
57564;DHT22;43400;45.926;6.724;2022-12-31T01:38:59;9.10;99.90
57564;DHT22;43400;45.926;6.724;2022-12-31T01:41:35;9.20;99.90
57564;DHT22;43400;45.926;6.724;2022-12-31T01:46:52;9.20;99.90
57564;DHT22;43400;45.926;6.724;2022-12-31T01:54:41;9.20;99.90
57564;DHT22;43400;45.926;6.724;2022-12-31T01:57:16;9.20;99.90
57564;DHT22;43400;45.926;6.724;2022-12-31T01:59:48;9.10;99.90
57564;DHT22;43400;45.926;6.724;2022-12-31T02:02:20;9.10;99.90
57564;DHT22;43400;45.926;6.724;2022-12-31T02:04:56;9.10;99.90
57564;DHT22;43400;45.926;6.724;2022-12-31T02:07:29;9.20;99.90
57564;DHT22;43400;45.926;6.724;2022-12-31T02:10:00;9.20;99.90
57564;DHT22;43400;45.926;6.724;2022-12-31T02:12:32;9.20;99.90
57564;DHT22;43400;45.926;6.724;2022-12-31T02:15:04;9.20;99.90
57564;DHT22;43400;45.926;6.724;2022-12-31T02:17:46;9.20;99.90
57564;DHT22;43400;45.926;6.724;2022-12-31T02:20:37;9.20;99.90
57564;DHT22;43400;45.926;6.724;2022-12-31T02:26:22;9.20;99.90
57564;DHT22;43400;45.926;6.724;2022-12-31T02:29:08;9.20;99.90
57564;DHT22;43400;45.926;6.724;2022-12-31T02:31:51;9.20;99.90
57564;DHT22;43400;45.926;6.724;2022-12-31T02:34:31;9.20;99.90
57564;DHT22;43400;45.926;6.724;2022-12-31T02:37:08;9.30;99.90
57564;DHT22;43400;45.926;6.724;2022-12-31T02:39:42;9.30;99.90
57564;DHT22;43400;45.926;6.724;2022-12-31T02:42:14;9.20;99.90
57564;DHT22;43400;45.926;6.724;2022-12-31T02:44:46;9.20;99.90
57564;DHT22;43400;45.926;6.724;2022-12-31T02:53:36;9.20;99.90
57564;DHT22;43400;45.926;6.724;2022-12-31T02:56:15;9.20;99.90
57564;DHT22;43400;45.926;6.724;2022-12-31T02:59:14;9.20;99.90
57564;DHT22;43400;45.926;6.724;2022-12-31T03:01:51;9.10;99.90
57564;DHT22;43400;45.926;6.724;2022-12-31T03:04:24;9.20;99.90
57564;DHT22;43400;45.926;6.724;2022-12-31T03:06:59;9.20;99.90
57564;DHT22;43400;45.926;6.724;2022-12-31T03:09:33;9.30;99.90
57564;DHT22;43400;45.926;6.724;2022-12-31T03:12:08;9.20;99.90
57564;DHT22;43400;45.926;6.724;2022-12-31T03:14:40;9.30;99.90
57564;DHT22;43400;45.926;6.724;2022-12-31T03:17:12;9.30;99.90
57564;DHT22;43400;45.926;6.724;2022-12-31T03:19:43;9.30;99.90
57564;DHT22;43400;45.926;6.724;2022-12-31T03:22:15;9.30;99.90
57564;DHT22;43400;45.926;6.724;2022-12-31T03:24:47;9.30;99.90
57564;DHT22;43400;45.926;6.724;2022-12-31T03:27:18;9.30;99.90
57564;DHT22;43400;45.926;6.724;2022-12-31T03:29:50;9.30;99.90
57564;DHT22;43400;45.926;6.724;2022-12-31T03:32:22;9.30;99.90
57564;DHT22;43400;45.926;6.724;2022-12-31T03:34:54;9.30;99.90
57564;DHT22;43400;45.926;6.724;2022-12-31T03:37:25;9.30;99.90
57564;DHT22;43400;45.926;6.724;2022-12-31T03:39:57;9.30;99.90
57564;DHT22;43400;45.926;6.724;2022-12-31T03:42:28;9.40;99.90
57564;DHT22;43400;45.926;6.724;2022-12-31T03:45:00;9.30;99.90
57564;DHT22;43400;45.926;6.724;2022-12-31T03:47:32;9.30;99.90
57564;DHT22;43400;45.926;6.724;2022-12-31T03:50:05;9.30;99.90
57564;DHT22;43400;45.926;6.724;2022-12-31T03:52:38;9.30;99.90
57564;DHT22;43400;45.926;6.724;2022-12-31T03:55:10;9.30;99.90
57564;DHT22;43400;45.926;6.724;2022-12-31T03:57:42;9.40;99.90
57564;DHT22;43400;45.926;6.724;2022-12-31T04:00:16;9.40;99.90
57564;DHT22;43400;45.926;6.724;2022-12-31T04:02:49;9.40;99.90
57564;DHT22;43400;45.926;6.724;2022-12-31T04:05:21;9.30;99.90
57564;DHT22;43400;45.926;6.724;2022-12-31T04:07:53;9.30;99.90
57564;DHT22;43400;45.926;6.724;2022-12-31T04:10:26;9.30;99.90
57564;DHT22;43400;45.926;6.724;2022-12-31T04:12:58;9.30;99.90
57564;DHT22;43400;45.926;6.724;2022-12-31T04:15:29;9.30;99.90
57564;DHT22;43400;45.926;6.724;2022-12-31T04:18:01;9.30;99.90
57564;DHT22;43400;45.926;6.724;2022-12-31T04:20:33;9.30;99.90
57564;DHT22;43400;45.926;6.724;2022-12-31T04:23:04;9.40;99.90
57564;DHT22;43400;45.926;6.724;2022-12-31T04:25:36;9.40;99.90
57564;DHT22;43400;45.926;6.724;2022-12-31T04:28:08;9.30;99.90
57564;DHT22;43400;45.926;6.724;2022-12-31T04:30:39;9.40;99.90
57564;DHT22;43400;45.926;6.724;2022-12-31T04:33:11;9.40;99.90
57564;DHT22;43400;45.926;6.724;2022-12-31T04:35:43;9.50;99.90
57564;DHT22;43400;45.926;6.724;2022-12-31T04:38:14;9.50;99.90
57564;DHT22;43400;45.926;6.724;2022-12-31T04:40:46;9.40;99.90
57564;DHT22;43400;45.926;6.724;2022-12-31T04:43:18;9.40;99.90
57564;DHT22;43400;45.926;6.724;2022-12-31T04:45:49;9.30;99.90
57564;DHT22;43400;45.926;6.724;2022-12-31T04:48:21;9.40;99.90
57564;DHT22;43400;45.926;6.724;2022-12-31T04:50:53;9.50;99.90
57564;DHT22;43400;45.926;6.724;2022-12-31T04:53:24;9.40;99.90
57564;DHT22;43400;45.926;6.724;2022-12-31T04:55:56;9.50;99.90
57564;DHT22;43400;45.926;6.724;2022-12-31T04:58:28;9.50;99.90
57564;DHT22;43400;45.926;6.724;2022-12-31T05:01:00;9.50;99.90
57564;DHT22;43400;45.926;6.724;2022-12-31T05:03:32;9.50;99.90
57564;DHT22;43400;45.926;6.724;2022-12-31T05:06:07;9.40;99.90
57564;DHT22;43400;45.926;6.724;2022-12-31T05:08:39;9.50;99.90
57564;DHT22;43400;45.926;6.724;2022-12-31T05:11:11;9.40;99.90
57564;DHT22;43400;45.926;6.724;2022-12-31T05:13:43;9.40;99.90
57564;DHT22;43400;45.926;6.724;2022-12-31T05:16:15;9.40;99.90
57564;DHT22;43400;45.926;6.724;2022-12-31T05:18:47;9.40;99.90
57564;DHT22;43400;45.926;6.724;2022-12-31T05:21:19;9.40;99.90
57564;DHT22;43400;45.926;6.724;2022-12-31T05:23:52;9.50;99.90
57564;DHT22;43400;45.926;6.724;2022-12-31T05:26:23;9.50;99.90
57564;DHT22;43400;45.926;6.724;2022-12-31T05:28:55;9.50;99.90
57564;DHT22;43400;45.926;6.724;2022-12-31T05:31:26;9.60;99.90
57564;DHT22;43400;45.926;6.724;2022-12-31T05:33:58;9.60;99.90
57564;DHT22;43400;45.926;6.724;2022-12-31T05:36:30;9.60;99.90
57564;DHT22;43400;45.926;6.724;2022-12-31T05:39:01;9.60;99.90
57564;DHT22;43400;45.926;6.724;2022-12-31T05:41:33;9.60;99.90
57564;DHT22;43400;45.926;6.724;2022-12-31T05:44:05;9.60;99.90
57564;DHT22;43400;45.926;6.724;2022-12-31T05:46:36;9.60;99.90
57564;DHT22;43400;45.926;6.724;2022-12-31T05:49:08;9.60;99.90
57564;DHT22;43400;45.926;6.724;2022-12-31T05:51:40;9.60;99.90
57564;DHT22;43400;45.926;6.724;2022-12-31T05:54:11;9.60;99.90
57564;DHT22;43400;45.926;6.724;2022-12-31T05:56:43;9.60;99.90
57564;DHT22;43400;45.926;6.724;2022-12-31T05:59:14;9.50;99.90
57564;DHT22;43400;45.926;6.724;2022-12-31T06:01:46;9.60;99.90
57564;DHT22;43400;45.926;6.724;2022-12-31T06:04:18;9.60;99.90
57564;DHT22;43400;45.926;6.724;2022-12-31T06:06:50;9.60;99.90
57564;DHT22;43400;45.926;6.724;2022-12-31T06:09:22;9.60;99.90
57564;DHT22;43400;45.926;6.724;2022-12-31T06:11:53;9.50;99.90
57564;DHT22;43400;45.926;6.724;2022-12-31T06:14:25;9.50;99.90
57564;DHT22;43400;45.926;6.724;2022-12-31T06:16:57;9.50;99.90
57564;DHT22;43400;45.926;6.724;2022-12-31T06:19:28;9.50;99.90
57564;DHT22;43400;45.926;6.724;2022-12-31T06:22:00;9.50;99.90
57564;DHT22;43400;45.926;6.724;2022-12-31T06:24:31;9.50;99.90
57564;DHT22;43400;45.926;6.724;2022-12-31T06:27:03;9.50;99.90
57564;DHT22;43400;45.926;6.724;2022-12-31T06:29:34;9.50;99.90
57564;DHT22;43400;45.926;6.724;2022-12-31T06:32:06;9.60;99.90
57564;DHT22;43400;45.926;6.724;2022-12-31T06:34:38;9.60;99.90
57564;DHT22;43400;45.926;6.724;2022-12-31T06:37:10;9.60;99.90
57564;DHT22;43400;45.926;6.724;2022-12-31T06:39:41;9.60;99.90
57564;DHT22;43400;45.926;6.724;2022-12-31T06:42:13;9.60;99.90
57564;DHT22;43400;45.926;6.724;2022-12-31T06:44:44;9.60;99.90
57564;DHT22;43400;45.926;6.724;2022-12-31T06:47:16;9.70;99.90
57564;DHT22;43400;45.926;6.724;2022-12-31T06:49:47;9.70;99.90
57564;DHT22;43400;45.926;6.724;2022-12-31T06:52:20;9.60;99.90
57564;DHT22;43400;45.926;6.724;2022-12-31T06:54:52;9.60;99.90
57564;DHT22;43400;45.926;6.724;2022-12-31T06:57:24;9.50;99.90
57564;DHT22;43400;45.926;6.724;2022-12-31T06:59:55;9.50;99.90
57564;DHT22;43400;45.926;6.724;2022-12-31T07:05:25;9.40;99.90
57564;DHT22;43400;45.926;6.724;2022-12-31T07:22:25;9.30;99.90
57564;DHT22;43400;45.926;6.724;2022-12-31T07:24:57;9.20;99.90
57564;DHT22;43400;45.926;6.724;2022-12-31T07:46:58;9.00;99.90
57564;DHT22;43400;45.926;6.724;2022-12-31T07:49:32;9.00;99.90
57564;DHT22;43400;45.926;6.724;2022-12-31T07:52:04;9.10;99.90
57564;DHT22;43400;45.926;6.724;2022-12-31T07:54:36;9.10;99.90
57564;DHT22;43400;45.926;6.724;2022-12-31T07:57:10;9.10;99.90
57564;DHT22;43400;45.926;6.724;2022-12-31T08:00:04;9.10;99.90
57564;DHT22;43400;45.926;6.724;2022-12-31T08:02:56;9.10;99.90
57564;DHT22;43400;45.926;6.724;2022-12-31T08:05:45;9.20;99.90
57564;DHT22;43400;45.926;6.724;2022-12-31T08:14:19;9.40;99.90
57564;DHT22;43400;45.926;6.724;2022-12-31T08:16:52;9.40;99.90
57564;DHT22;43400;45.926;6.724;2022-12-31T08:19:29;9.40;99.90
57564;DHT22;43400;45.926;6.724;2022-12-31T08:30:10;9.80;99.90
57564;DHT22;43400;45.926;6.724;2022-12-31T08:38:25;10.10;99.90
57564;DHT22;43400;45.926;6.724;2022-12-31T08:41:16;10.10;99.90
57564;DHT22;43400;45.926;6.724;2022-12-31T08:47:00;10.10;99.90
57564;DHT22;43400;45.926;6.724;2022-12-31T08:49:36;10.10;99.90
57564;DHT22;43400;45.926;6.724;2022-12-31T08:52:22;10.10;99.90
57564;DHT22;43400;45.926;6.724;2022-12-31T08:54:54;10.10;99.90
57564;DHT22;43400;45.926;6.724;2022-12-31T08:57:41;10.10;99.90
57564;DHT22;43400;45.926;6.724;2022-12-31T09:00:16;10.10;99.90
57564;DHT22;43400;45.926;6.724;2022-12-31T09:03:18;10.20;99.90
57564;DHT22;43400;45.926;6.724;2022-12-31T09:11:29;10.40;99.90
57564;DHT22;43400;45.926;6.724;2022-12-31T09:19:44;10.60;99.90
57564;DHT22;43400;45.926;6.724;2022-12-31T09:22:15;10.60;99.90
57564;DHT22;43400;45.926;6.724;2022-12-31T09:24:47;10.60;99.90
57564;DHT22;43400;45.926;6.724;2022-12-31T09:27:24;10.70;99.90
57564;DHT22;43400;45.926;6.724;2022-12-31T09:30:06;10.80;99.90
57564;DHT22;43400;45.926;6.724;2022-12-31T09:56:25;11.80;99.90
57564;DHT22;43400;45.926;6.724;2022-12-31T09:59:05;11.90;99.90
57564;DHT22;43400;45.926;6.724;2022-12-31T10:10:53;12.60;99.90
57564;DHT22;43400;45.926;6.724;2022-12-31T10:19:25;13.10;99.90
57564;DHT22;43400;45.926;6.724;2022-12-31T10:30:33;13.60;99.90
57564;DHT22;43400;45.926;6.724;2022-12-31T10:33:16;13.80;99.90
57564;DHT22;43400;45.926;6.724;2022-12-31T10:36:17;14.00;99.90
57564;DHT22;43400;45.926;6.724;2022-12-31T10:51:12;15.20;99.90
57564;DHT22;43400;45.926;6.724;2022-12-31T11:21:15;15.40;97.60
57564;DHT22;43400;45.926;6.724;2022-12-31T11:43:54;15.50;96.30
57564;DHT22;43400;45.926;6.724;2022-12-31T11:46:42;15.50;95.40
57564;DHT22;43400;45.926;6.724;2022-12-31T11:57:28;15.60;95.40
57564;DHT22;43400;45.926;6.724;2022-12-31T12:00:22;15.80;95.00
57564;DHT22;43400;45.926;6.724;2022-12-31T12:03:03;15.90;92.80
57564;DHT22;43400;45.926;6.724;2022-12-31T12:05:37;16.10;92.50
57564;DHT22;43400;45.926;6.724;2022-12-31T12:08:10;16.30;92.80
57564;DHT22;43400;45.926;6.724;2022-12-31T12:10:46;16.50;91.20
57564;DHT22;43400;45.926;6.724;2022-12-31T12:16:05;17.00;90.70
57564;DHT22;43400;45.926;6.724;2022-12-31T12:18:49;17.30;91.00
57564;DHT22;43400;45.926;6.724;2022-12-31T12:21:23;17.60;90.30
57564;DHT22;43400;45.926;6.724;2022-12-31T12:24:01;17.70;87.60
57564;DHT22;43400;45.926;6.724;2022-12-31T12:26:39;18.10;85.50
57564;DHT22;43400;45.926;6.724;2022-12-31T12:31:59;18.40;84.60
57564;DHT22;43400;45.926;6.724;2022-12-31T12:34:40;18.50;84.30
57564;DHT22;43400;45.926;6.724;2022-12-31T12:37:28;18.60;86.50
57564;DHT22;43400;45.926;6.724;2022-12-31T12:40:06;18.50;85.20
57564;DHT22;43400;45.926;6.724;2022-12-31T12:42:50;18.90;83.20
57564;DHT22;43400;45.926;6.724;2022-12-31T12:45:28;19.20;78.80
57564;DHT22;43400;45.926;6.724;2022-12-31T12:50:56;20.00;73.50
57564;DHT22;43400;45.926;6.724;2022-12-31T12:54:10;20.10;72.10
57564;DHT22;43400;45.926;6.724;2022-12-31T12:57:17;19.90;72.00
57564;DHT22;43400;45.926;6.724;2022-12-31T13:00:13;20.20;71.30
57564;DHT22;43400;45.926;6.724;2022-12-31T13:03:27;20.90;70.00
57564;DHT22;43400;45.926;6.724;2022-12-31T13:06:18;21.70;67.80
57564;DHT22;43400;45.926;6.724;2022-12-31T13:26:13;22.50;64.40
57564;DHT22;43400;45.926;6.724;2022-12-31T13:28:49;22.50;61.50
57564;DHT22;43400;45.926;6.724;2022-12-31T13:31:35;22.20;63.30
57564;DHT22;43400;45.926;6.724;2022-12-31T13:34:26;22.60;61.10
57564;DHT22;43400;45.926;6.724;2022-12-31T13:37:04;22.90;60.80
57564;DHT22;43400;45.926;6.724;2022-12-31T13:39:39;22.90;59.30
57564;DHT22;43400;45.926;6.724;2022-12-31T13:44:55;23.50;58.00
57564;DHT22;43400;45.926;6.724;2022-12-31T13:47:34;22.20;60.60
57564;DHT22;43400;45.926;6.724;2022-12-31T13:50:18;21.10;65.40
57564;DHT22;43400;45.926;6.724;2022-12-31T13:53:00;20.50;67.30
57564;DHT22;43400;45.926;6.724;2022-12-31T13:55:40;20.30;66.60
57564;DHT22;43400;45.926;6.724;2022-12-31T13:58:25;20.20;66.70
57564;DHT22;43400;45.926;6.724;2022-12-31T14:04:11;19.60;68.10
57564;DHT22;43400;45.926;6.724;2022-12-31T14:07:10;19.40;69.30
57564;DHT22;43400;45.926;6.724;2022-12-31T14:09:44;19.60;69.40
57564;DHT22;43400;45.926;6.724;2022-12-31T14:12:49;19.50;69.40
57564;DHT22;43400;45.926;6.724;2022-12-31T14:15:32;19.90;70.80
57564;DHT22;43400;45.926;6.724;2022-12-31T14:18:25;20.20;67.20
57564;DHT22;43400;45.926;6.724;2022-12-31T14:21:46;20.60;66.10
57564;DHT22;43400;45.926;6.724;2022-12-31T14:26:49;20.80;65.20
57564;DHT22;43400;45.926;6.724;2022-12-31T14:29:51;20.30;65.80
57564;DHT22;43400;45.926;6.724;2022-12-31T14:38:23;20.00;66.80
57564;DHT22;43400;45.926;6.724;2022-12-31T14:44:26;19.20;68.50
57564;DHT22;43400;45.926;6.724;2022-12-31T14:50:10;17.60;73.30
57564;DHT22;43400;45.926;6.724;2022-12-31T14:55:33;16.70;75.50
57564;DHT22;43400;45.926;6.724;2022-12-31T15:01:18;16.10;78.40
57564;DHT22;43400;45.926;6.724;2022-12-31T15:03:51;16.00;79.90
57564;DHT22;43400;45.926;6.724;2022-12-31T15:09:38;16.30;80.30
57564;DHT22;43400;45.926;6.724;2022-12-31T15:23:36;15.30;82.60
57564;DHT22;43400;45.926;6.724;2022-12-31T15:26:28;15.20;83.40
57564;DHT22;43400;45.926;6.724;2022-12-31T15:29:06;15.00;84.60
57564;DHT22;43400;45.926;6.724;2022-12-31T15:31:44;14.90;84.20
57564;DHT22;43400;45.926;6.724;2022-12-31T15:34:32;14.90;84.30
57564;DHT22;43400;45.926;6.724;2022-12-31T15:37:25;14.80;85.50
57564;DHT22;43400;45.926;6.724;2022-12-31T15:40:17;14.60;86.80
57564;DHT22;43400;45.926;6.724;2022-12-31T15:45:51;14.30;88.60
57564;DHT22;43400;45.926;6.724;2022-12-31T15:48:31;14.20;88.50
57564;DHT22;43400;45.926;6.724;2022-12-31T15:51:15;14.20;87.10
57564;DHT22;43400;45.926;6.724;2022-12-31T15:53:51;14.10;88.30
57564;DHT22;43400;45.926;6.724;2022-12-31T15:59:11;13.80;90.30
57564;DHT22;43400;45.926;6.724;2022-12-31T16:01:44;13.70;90.10
57564;DHT22;43400;45.926;6.724;2022-12-31T16:04:26;13.70;90.00
57564;DHT22;43400;45.926;6.724;2022-12-31T16:07:02;13.60;90.10
57564;DHT22;43400;45.926;6.724;2022-12-31T16:09:34;13.60;90.30
57564;DHT22;43400;45.926;6.724;2022-12-31T16:12:14;13.50;90.40
57564;DHT22;43400;45.926;6.724;2022-12-31T16:14:54;13.50;90.30
57564;DHT22;43400;45.926;6.724;2022-12-31T16:17:32;13.40;90.30
57564;DHT22;43400;45.926;6.724;2022-12-31T16:20:24;13.30;90.50
57564;DHT22;43400;45.926;6.724;2022-12-31T16:22:58;13.20;91.00
57564;DHT22;43400;45.926;6.724;2022-12-31T16:25:30;13.10;91.30
57564;DHT22;43400;45.926;6.724;2022-12-31T16:28:02;13.00;91.60
57564;DHT22;43400;45.926;6.724;2022-12-31T16:30:34;12.70;92.20
57564;DHT22;43400;45.926;6.724;2022-12-31T16:33:12;12.60;92.80
57564;DHT22;43400;45.926;6.724;2022-12-31T16:35:54;12.70;93.20
57564;DHT22;43400;45.926;6.724;2022-12-31T16:38:35;12.60;93.50
57564;DHT22;43400;45.926;6.724;2022-12-31T16:41:18;12.60;93.80
57564;DHT22;43400;45.926;6.724;2022-12-31T16:43:50;12.50;94.00
57564;DHT22;43400;45.926;6.724;2022-12-31T16:46:25;12.40;94.00
57564;DHT22;43400;45.926;6.724;2022-12-31T16:49:21;12.30;94.70
57564;DHT22;43400;45.926;6.724;2022-12-31T16:51:57;12.20;95.20
57564;DHT22;43400;45.926;6.724;2022-12-31T16:54:37;12.10;95.70
57564;DHT22;43400;45.926;6.724;2022-12-31T16:57:22;12.00;96.10
57564;DHT22;43400;45.926;6.724;2022-12-31T17:00:02;11.90;96.90
57564;DHT22;43400;45.926;6.724;2022-12-31T17:02:39;11.70;97.50
57564;DHT22;43400;45.926;6.724;2022-12-31T17:05:23;11.80;98.20
57564;DHT22;43400;45.926;6.724;2022-12-31T17:07:54;11.70;98.60
57564;DHT22;43400;45.926;6.724;2022-12-31T17:10:34;11.60;98.10
57564;DHT22;43400;45.926;6.724;2022-12-31T17:13:20;11.60;99.30
57564;DHT22;43400;45.926;6.724;2022-12-31T17:15:53;11.80;98.20
57564;DHT22;43400;45.926;6.724;2022-12-31T17:18:31;11.90;97.70
57564;DHT22;43400;45.926;6.724;2022-12-31T17:21:07;11.90;97.20
57564;DHT22;43400;45.926;6.724;2022-12-31T17:23:40;12.00;96.10
57564;DHT22;43400;45.926;6.724;2022-12-31T17:26:22;11.90;96.20
57564;DHT22;43400;45.926;6.724;2022-12-31T17:28:56;11.70;97.30
57564;DHT22;43400;45.926;6.724;2022-12-31T17:37:10;11.90;96.70
57564;DHT22;43400;45.926;6.724;2022-12-31T17:39:49;11.60;97.60
57564;DHT22;43400;45.926;6.724;2022-12-31T17:45:17;11.10;99.90
57564;DHT22;43400;45.926;6.724;2022-12-31T17:47:51;11.10;99.90
57564;DHT22;43400;45.926;6.724;2022-12-31T17:50:26;11.20;99.90
57564;DHT22;43400;45.926;6.724;2022-12-31T17:53:01;11.40;98.10
57564;DHT22;43400;45.926;6.724;2022-12-31T17:55:40;11.40;97.80
57564;DHT22;43400;45.926;6.724;2022-12-31T18:00:55;11.60;97.10
57564;DHT22;43400;45.926;6.724;2022-12-31T18:03:27;11.60;96.80
57564;DHT22;43400;45.926;6.724;2022-12-31T18:05:59;11.70;96.40
57564;DHT22;43400;45.926;6.724;2022-12-31T18:08:31;11.60;95.70
57564;DHT22;43400;45.926;6.724;2022-12-31T18:11:03;11.70;95.40
57564;DHT22;43400;45.926;6.724;2022-12-31T18:13:35;11.60;95.70
57564;DHT22;43400;45.926;6.724;2022-12-31T18:16:08;11.30;96.70
57564;DHT22;43400;45.926;6.724;2022-12-31T18:18:40;11.10;97.40
57564;DHT22;43400;45.926;6.724;2022-12-31T18:21:32;11.10;97.70
57564;DHT22;43400;45.926;6.724;2022-12-31T18:24:05;11.20;97.60
57564;DHT22;43400;45.926;6.724;2022-12-31T18:26:36;11.20;97.00
57564;DHT22;43400;45.926;6.724;2022-12-31T18:29:14;11.30;96.90
57564;DHT22;43400;45.926;6.724;2022-12-31T18:31:47;11.30;97.10
57564;DHT22;43400;45.926;6.724;2022-12-31T18:34:19;11.30;96.90
57564;DHT22;43400;45.926;6.724;2022-12-31T18:36:50;11.40;96.10
57564;DHT22;43400;45.926;6.724;2022-12-31T18:39:22;11.40;95.90
57564;DHT22;43400;45.926;6.724;2022-12-31T18:41:54;11.30;96.00
57564;DHT22;43400;45.926;6.724;2022-12-31T18:44:25;11.20;96.30
57564;DHT22;43400;45.926;6.724;2022-12-31T18:46:57;11.20;96.30
57564;DHT22;43400;45.926;6.724;2022-12-31T18:49:29;11.30;95.80
57564;DHT22;43400;45.926;6.724;2022-12-31T18:52:01;11.20;96.10
57564;DHT22;43400;45.926;6.724;2022-12-31T18:54:32;11.20;96.00
57564;DHT22;43400;45.926;6.724;2022-12-31T18:57:04;11.00;96.60
57564;DHT22;43400;45.926;6.724;2022-12-31T18:59:35;10.90;97.50
57564;DHT22;43400;45.926;6.724;2022-12-31T19:02:17;11.00;97.00
57564;DHT22;43400;45.926;6.724;2022-12-31T19:04:49;10.90;97.40
57564;DHT22;43400;45.926;6.724;2022-12-31T19:07:20;10.90;97.30
57564;DHT22;43400;45.926;6.724;2022-12-31T19:09:52;11.00;96.80
57564;DHT22;43400;45.926;6.724;2022-12-31T19:12:23;11.10;96.40
57564;DHT22;43400;45.926;6.724;2022-12-31T19:14:55;11.10;95.80
57564;DHT22;43400;45.926;6.724;2022-12-31T19:17:26;11.00;96.40
57564;DHT22;43400;45.926;6.724;2022-12-31T19:19:58;10.70;97.50
57564;DHT22;43400;45.926;6.724;2022-12-31T19:22:30;10.70;98.00
57564;DHT22;43400;45.926;6.724;2022-12-31T19:25:02;10.60;98.30
57564;DHT22;43400;45.926;6.724;2022-12-31T19:27:33;10.60;98.10
57564;DHT22;43400;45.926;6.724;2022-12-31T19:30:08;10.60;97.70
57564;DHT22;43400;45.926;6.724;2022-12-31T19:32:41;10.80;97.00
57564;DHT22;43400;45.926;6.724;2022-12-31T19:35:14;10.80;96.90
57564;DHT22;43400;45.926;6.724;2022-12-31T19:37:47;10.70;96.90
57564;DHT22;43400;45.926;6.724;2022-12-31T19:40:22;10.70;96.90
57564;DHT22;43400;45.926;6.724;2022-12-31T19:42:54;10.60;97.30
57564;DHT22;43400;45.926;6.724;2022-12-31T19:45:27;10.40;98.50
57564;DHT22;43400;45.926;6.724;2022-12-31T19:47:59;10.30;99.10
57564;DHT22;43400;45.926;6.724;2022-12-31T19:50:31;10.20;99.90
57564;DHT22;43400;45.926;6.724;2022-12-31T19:53:03;10.20;99.90
57564;DHT22;43400;45.926;6.724;2022-12-31T19:55:34;10.30;99.90
57564;DHT22;43400;45.926;6.724;2022-12-31T19:58:07;10.40;99.00
57564;DHT22;43400;45.926;6.724;2022-12-31T20:00:38;10.50;98.20
57564;DHT22;43400;45.926;6.724;2022-12-31T20:03:10;10.60;97.50
57564;DHT22;43400;45.926;6.724;2022-12-31T20:05:42;10.70;97.00
57564;DHT22;43400;45.926;6.724;2022-12-31T20:08:15;10.70;96.40
57564;DHT22;43400;45.926;6.724;2022-12-31T20:10:46;10.60;96.80
57564;DHT22;43400;45.926;6.724;2022-12-31T20:13:18;10.50;97.30
57564;DHT22;43400;45.926;6.724;2022-12-31T20:15:52;10.30;97.90
57564;DHT22;43400;45.926;6.724;2022-12-31T20:18:24;10.40;97.90
57564;DHT22;43400;45.926;6.724;2022-12-31T20:20:56;10.30;97.70
57564;DHT22;43400;45.926;6.724;2022-12-31T20:23:32;10.30;98.00
57564;DHT22;43400;45.926;6.724;2022-12-31T20:26:04;10.40;97.60
57564;DHT22;43400;45.926;6.724;2022-12-31T20:28:36;10.60;96.60
57564;DHT22;43400;45.926;6.724;2022-12-31T20:31:15;10.60;96.30
57564;DHT22;43400;45.926;6.724;2022-12-31T20:33:47;10.80;95.70
57564;DHT22;43400;45.926;6.724;2022-12-31T20:36:19;10.90;95.30
57564;DHT22;43400;45.926;6.724;2022-12-31T20:38:50;10.60;96.10
57564;DHT22;43400;45.926;6.724;2022-12-31T20:41:22;10.30;97.40
57564;DHT22;43400;45.926;6.724;2022-12-31T20:43:54;10.30;97.70
57564;DHT22;43400;45.926;6.724;2022-12-31T20:46:27;10.10;98.50
57564;DHT22;43400;45.926;6.724;2022-12-31T20:49:01;10.00;99.90
57564;DHT22;43400;45.926;6.724;2022-12-31T20:51:33;9.90;99.90
57564;DHT22;43400;45.926;6.724;2022-12-31T20:54:07;10.00;99.40
57564;DHT22;43400;45.926;6.724;2022-12-31T20:56:39;10.10;98.70
57564;DHT22;43400;45.926;6.724;2022-12-31T20:59:12;10.10;98.80
57564;DHT22;43400;45.926;6.724;2022-12-31T21:01:43;10.00;98.80
57564;DHT22;43400;45.926;6.724;2022-12-31T21:04:15;9.90;99.10
57564;DHT22;43400;45.926;6.724;2022-12-31T21:06:47;9.90;99.40
57564;DHT22;43400;45.926;6.724;2022-12-31T21:09:18;10.00;99.40
57564;DHT22;43400;45.926;6.724;2022-12-31T21:11:50;9.90;99.90
57564;DHT22;43400;45.926;6.724;2022-12-31T21:14:21;9.80;99.90
57564;DHT22;43400;45.926;6.724;2022-12-31T21:16:53;9.80;99.90
57564;DHT22;43400;45.926;6.724;2022-12-31T21:19:24;10.00;99.40